Bluff, Alabama
Current Conditions -  °F | °C
As of 9:15 AM on Wednesday 22 Oct 2014 (Local Time) from KJFX Reporting Station
Clear Clear  
Wind Chill: 57°   Ceiling: Unl
Heat Index: 57°   Visibility: 10mi
Dew Point: 46°   Wind: 7mph
Humidity: 67%   Direction: 60°ENE
Pressure: 30.2"   Gusts: NA
Location:  33.6949°N, 87.8413°W
Report Text: KJFX 221415Z AUTO 06006KT 10SM CLR 14/08 A3020 RMK A02 P-128
Loading
Personal Weather Stations






























Interactive Weather Map
Tropical Storm Tracking
New forecast layout! Learn more

10-Day Weather Forecast

Advertisements
Track Severe Weather on mobile